aviador You're here:

LKPR Decoded Metar

PRAGUE in CZECH REPUBLIC
Report Time2017-08-18 14:00:00
UTC Time2017-08-18 14:26:30
Flight Rules vfr VFR
Wind170° at 07 kt
W.Decomp.*RWY 12: 4.7 kt HW 5.2 kt RCW
RWY 22: 4.3 kt HW 5.5 kt LCW
RWY 24: 2.2 kt HW 6.7 kt LCW
W.Rank170° ranks 20
Current wind is above 170° avg. (5.6)
Visibility9999 m
Phenomena:N/A
Clouds:N/A
Expected CloudBase > 4,400 ft AGL from Temp-Dew spread
CeilingNone
Temp29°C (ISA +16)
Dew Point18°C (51% RH)
Heat Index29.8°C
QNH1014 hPa
Density Alt3,320 ft
Elevation1,198 ft
Report Wrong Elevation
Raw Report
LKPR 181400Z 17007KT CAVOK 29/18 Q1014 NOSIG=

Extra information for LKPR:More info

Metar Taf Metar & Taf Last 4 Metars F.Rules Stats Wind Profile Meteogram Temp Stats Airport Information Weather charts Add Link Nearby VenuesMetar ALERT Operation Metar Decoded Social comments